KABY

Southwest Georgia Regional Airport

Albany, Georgia, USA
METAR KABY 180753Z AUTO 00000KT 9SM OVC008 17/17 A3016 RMK AO2 RAB10E24 SLP210 P0000 T01720167
Observed Flight Rules
Dec-18 @ 07:53 UTC (59 minutes ago) Instrument Flight Rules
Wind Visibility Clouds
Calm 9 miles
  • Overcast at 800' AGL
Temperatures Readings Precipitation
Current 17°C / 63°F
Dewpoint 17°C / 63°F
Humidity 100%
Altimeter 30.16" Hg
Pressure 1021 hPa
Elevation 58
Current Rain 0.005
METAR KABY 180753Z AUTO 00000KT 9SM OVC008 17/17 A3016 RMK AO2 RAB10E24 SLP210 P0000 T01720167
Observed Flight Rules
Dec-18 @ 07:53 UTC
(59 minutes ago)
IFR
Wind Visibility
Calm 9 miles
Clouds
  • Overcast at 800' AGL
Temperature Dewpoint
17°C / 63°F 17°C / 63°F
Humidity Altimeter Pressure
100% 30.16" Hg 1021 hPa
Current Rain
0.005